createdAt,value
2017-01-25T00:00:08.675Z,-0.91
2017-01-25T00:01:08.273Z,-1.04
2017-01-25T00:02:08.215Z,-0.97
2017-01-25T00:03:09.091Z,-0.86
2017-01-25T00:04:09.246Z,-1.01
2017-01-25T00:05:08.836Z,-0.99
2017-01-25T00:06:09.175Z,-0.99
2017-01-25T00:07:09.638Z,-0.99
2017-01-25T00:08:08.893Z,-0.94
2017-01-25T00:09:09.921Z,-1.01
2017-01-25T00:10:08.936Z,-1.07
2017-01-25T00:11:08.966Z,-0.99
2017-01-25T00:12:09.670Z,-0.99
2017-01-25T00:13:09.998Z,-1.04
2017-01-25T00:14:09.075Z,-1.02
2017-01-25T00:15:09.365Z,-0.97
2017-01-25T00:16:08.362Z,-0.99
2017-01-25T00:17:09.457Z,-1.02
2017-01-25T00:18:08.733Z,-0.99
2017-01-25T00:19:08.271Z,-0.96
2017-01-25T00:20:09.072Z,-1.02
2017-01-25T00:21:09.493Z,-0.96
2017-01-25T00:22:09.025Z,-0.99
2017-01-25T00:23:09.053Z,-1.01
2017-01-25T00:24:08.837Z,-1.04
2017-01-25T00:25:08.025Z,-1.04
2017-01-25T00:26:08.607Z,-1.04
2017-01-25T00:27:08.993Z,-0.97
2017-01-25T00:28:09.451Z,-1.07
2017-01-25T00:29:09.066Z,-0.97
2017-01-25T00:30:09.242Z,-1.01
2017-01-25T00:31:08.993Z,-1.02
2017-01-25T00:32:10.010Z,-0.96
2017-01-25T00:33:08.996Z,-0.97
2017-01-25T00:34:09.274Z,-1.01
2017-01-25T00:35:10.027Z,-1.04
2017-01-25T00:36:09.644Z,-0.97
2017-01-25T00:37:09.634Z,-0.97
2017-01-25T00:38:09.035Z,-1.02
2017-01-25T00:39:08.697Z,-1.02
2017-01-25T00:40:09.129Z,-1.04
2017-01-25T00:41:10.367Z,-1.01
2017-01-25T00:42:08.945Z,-0.99
2017-01-25T00:43:09.622Z,-1.05
2017-01-25T00:44:09.809Z,-0.99
2017-01-25T00:45:09.327Z,-0.93
2017-01-25T00:46:09.494Z,-0.96
2017-01-25T00:47:09.693Z,-1.05
2017-01-25T00:48:09.042Z,-0.93
2017-01-25T00:49:09.110Z,-1.01
2017-01-25T00:50:08.989Z,-0.89
2017-01-25T00:51:10.113Z,-0.9
2017-01-25T00:52:08.836Z,-0.91
2017-01-25T00:53:09.303Z,-0.89
2017-01-25T00:54:09.753Z,-0.8
2017-01-25T00:55:09.848Z,-0.85
2017-01-25T00:56:09.355Z,-0.9
2017-01-25T00:57:09.517Z,-0.86
2017-01-25T00:58:09.865Z,-0.91
2017-01-25T00:59:09.282Z,-0.91
2017-01-25T01:00:09.434Z,-0.89
2017-01-25T01:01:09.739Z,-0.83
2017-01-25T01:02:09.751Z,-0.74
2017-01-25T01:03:09.189Z,-0.71
2017-01-25T01:04:09.522Z,-0.77
2017-01-25T01:05:10.783Z,-0.72
2017-01-25T01:06:09.956Z,-0.77
2017-01-25T01:07:09.177Z,-0.78
2017-01-25T01:08:09.673Z,-0.8
2017-01-25T01:09:09.182Z,-0.77
2017-01-25T01:10:09.271Z,-0.77
2017-01-25T01:11:09.562Z,-0.78
2017-01-25T01:12:09.167Z,-0.8
2017-01-25T01:13:09.213Z,-0.74
2017-01-25T01:14:10.052Z,-0.74
2017-01-25T01:15:10.428Z,-0.75
2017-01-25T01:16:10.704Z,-0.8
2017-01-25T01:17:10.066Z,-0.83
2017-01-25T01:18:08.880Z,-0.7
2017-01-25T01:19:09.773Z,-0.74
2017-01-25T01:20:09.368Z,-0.71
2017-01-25T01:21:11.182Z,-0.9
2017-01-25T01:22:09.300Z,-0.74
2017-01-25T01:23:10.074Z,-0.78
2017-01-25T01:24:09.782Z,-0.78
2017-01-25T01:25:09.183Z,-0.74
2017-01-25T01:26:11.448Z,-0.77
2017-01-25T01:27:09.550Z,-0.85
2017-01-25T01:28:09.805Z,-0.77
2017-01-25T01:29:10.516Z,-0.85
2017-01-25T01:30:10.111Z,-0.78
2017-01-25T01:31:09.399Z,-0.77
2017-01-25T01:32:09.531Z,-0.8
2017-01-25T01:33:09.744Z,-0.8
2017-01-25T01:34:10.296Z,-0.75
2017-01-25T01:35:10.239Z,-0.91
2017-01-25T01:36:09.667Z,-0.86
2017-01-25T01:37:10.219Z,-0.78
2017-01-25T01:38:10.106Z,-0.82
2017-01-25T01:39:09.867Z,-0.9
2017-01-25T01:40:10.163Z,-0.89
2017-01-25T01:41:10.737Z,-0.82
2017-01-25T01:42:09.812Z,-0.83
2017-01-25T01:43:09.442Z,-0.89
2017-01-25T01:44:09.782Z,-0.83
2017-01-25T01:45:09.561Z,-0.86
2017-01-25T01:46:09.477Z,-0.89
2017-01-25T01:47:09.316Z,-0.86
2017-01-25T01:48:10.351Z,-0.96
2017-01-25T01:49:10.268Z,-0.91
2017-01-25T01:50:10.078Z,-1.05
2017-01-25T01:51:10.636Z,-0.89
2017-01-25T01:52:10.072Z,-0.97
2017-01-25T01:53:10.112Z,-1.01
2017-01-25T01:54:10.017Z,-1.07
2017-01-25T01:55:09.178Z,-0.93
2017-01-25T01:56:09.658Z,-0.96
2017-01-25T01:57:10.189Z,-0.93
2017-01-25T01:58:10.015Z,-1.04
2017-01-25T01:59:09.511Z,-1.04
2017-01-25T02:00:10.339Z,-0.99
2017-01-25T02:01:10.016Z,-1.01
2017-01-25T02:02:10.119Z,-0.97
2017-01-25T02:03:09.669Z,-1.05
2017-01-25T02:04:10.574Z,-1.12
2017-01-25T02:05:10.567Z,-0.96
2017-01-25T02:06:09.537Z,-1.08
2017-01-25T02:07:09.953Z,-1.09
2017-01-25T02:08:10.933Z,-1.01
2017-01-25T02:09:10.431Z,-0.97
2017-01-25T02:10:09.638Z,-1.12
2017-01-25T02:11:10.150Z,-1.04
2017-01-25T02:12:11.417Z,-1.09
2017-01-25T02:13:09.710Z,-1.01
2017-01-25T02:14:10.539Z,-1.07
2017-01-25T02:15:09.689Z,-1.04
2017-01-25T02:16:09.831Z,-1.05
2017-01-25T02:17:10.755Z,-1.09
2017-01-25T02:18:10.832Z,-1.07
2017-01-25T02:19:10.532Z,-1.05
2017-01-25T02:20:10.084Z,-1.07
2017-01-25T02:21:09.806Z,-1.12
2017-01-25T02:22:10.085Z,-1.14
2017-01-25T02:23:10.299Z,-1.11
2017-01-25T02:24:10.194Z,-1.05
2017-01-25T02:25:10.864Z,-1.14
2017-01-25T02:26:10.755Z,-1.14
2017-01-25T02:27:10.127Z,-1.12
2017-01-25T02:28:10.589Z,-1.05
2017-01-25T02:29:12.159Z,-1.11
2017-01-25T02:30:30.026Z,-1.14
2017-01-25T02:31:10.136Z,-1.19
2017-01-25T02:32:10.591Z,-1.17
2017-01-25T02:33:10.358Z,-1.08
2017-01-25T02:34:10.098Z,-1.19
2017-01-25T02:35:09.804Z,-1.2
2017-01-25T02:36:10.003Z,-1.17
2017-01-25T02:37:10.449Z,-1.19
2017-01-25T02:38:11.608Z,-1.22
2017-01-25T02:39:10.353Z,-1.11
2017-01-25T02:40:10.665Z,-1.11
2017-01-25T02:41:10.224Z,-1.14
2017-01-25T02:42:10.628Z,-1.09
2017-01-25T02:43:10.647Z,-1.09
2017-01-25T02:44:10.253Z,-1.17
2017-01-25T02:45:11.149Z,-1.05
2017-01-25T02:46:12.088Z,-1.08
2017-01-25T02:47:10.629Z,-1.15
2017-01-25T02:48:10.800Z,-1.17
2017-01-25T02:49:11.175Z,-1.14
2017-01-25T02:50:11.004Z,-1.17
2017-01-25T02:51:11.424Z,-1.22
2017-01-25T02:52:10.448Z,-1.17
2017-01-25T02:53:11.488Z,-1.17
2017-01-25T02:54:10.409Z,-1.23
2017-01-25T02:55:11.771Z,-1.14
2017-01-25T02:56:10.798Z,-1.2
2017-01-25T02:57:10.302Z,-1.25
2017-01-25T02:58:10.705Z,-1.29
2017-01-25T02:59:10.504Z,-1.29
2017-01-25T03:00:10.415Z,-1.26
2017-01-25T03:01:10.812Z,-1.25
2017-01-25T03:02:11.715Z,-1.26
2017-01-25T03:03:10.885Z,-1.25
2017-01-25T03:04:11.035Z,-1.29
2017-01-25T03:05:10.105Z,-1.27
2017-01-25T03:06:12.014Z,-1.25
2017-01-25T03:07:10.853Z,-1.26
2017-01-25T03:08:10.067Z,-1.25
2017-01-25T03:09:10.584Z,-1.33
2017-01-25T03:10:10.264Z,-1.27
2017-01-25T03:11:10.652Z,-1.25
2017-01-25T03:12:11.002Z,-1.29
2017-01-25T03:13:11.494Z,-1.25
2017-01-25T03:14:11.124Z,-1.23
2017-01-25T03:15:10.949Z,-1.23
2017-01-25T03:16:11.772Z,-1.26
2017-01-25T03:17:11.944Z,-1.22
2017-01-25T03:18:11.154Z,-1.25
2017-01-25T03:19:11.011Z,-1.29
2017-01-25T03:20:11.638Z,-1.3
2017-01-25T03:21:11.734Z,-1.22
2017-01-25T03:22:11.238Z,-1.25
2017-01-25T03:23:11.685Z,-1.35
2017-01-25T03:24:10.720Z,-1.29
2017-01-25T03:25:10.406Z,-1.29
2017-01-25T03:26:10.791Z,-1.3
2017-01-25T03:27:11.870Z,-1.38
2017-01-25T03:28:11.078Z,-1.37
2017-01-25T03:29:10.812Z,-1.38
2017-01-25T03:30:10.805Z,-1.35
2017-01-25T03:31:11.208Z,-1.3
2017-01-25T03:32:10.408Z,-1.25
2017-01-25T03:33:11.205Z,-1.37
2017-01-25T03:34:11.052Z,-1.22
2017-01-25T03:35:10.783Z,-1.27
2017-01-25T03:36:10.869Z,-1.29
2017-01-25T03:37:11.065Z,-1.35
2017-01-25T03:38:10.915Z,-1.3
2017-01-25T03:39:10.789Z,-1.32
2017-01-25T03:40:11.061Z,-1.33
2017-01-25T03:41:11.629Z,-1.26
2017-01-25T03:42:11.551Z,-1.25
2017-01-25T03:43:12.249Z,-1.26
2017-01-25T03:44:11.476Z,-1.2
2017-01-25T03:45:11.075Z,-1.26
2017-01-25T03:46:10.960Z,-1.22
2017-01-25T03:47:11.437Z,-1.29
2017-01-25T03:48:12.413Z,-1.23
2017-01-25T03:49:10.959Z,-1.26
2017-01-25T03:50:11.912Z,-1.29
2017-01-25T03:51:10.439Z,-1.29
2017-01-25T03:52:10.819Z,-1.23
2017-01-25T03:53:10.946Z,-1.26
2017-01-25T03:54:11.344Z,-1.25
2017-01-25T03:55:12.652Z,-1.26
2017-01-25T03:56:11.390Z,-1.33
2017-01-25T03:57:11.088Z,-1.29
2017-01-25T03:58:12.355Z,-1.38
2017-01-25T03:59:11.718Z,-1.26
2017-01-25T04:00:10.495Z,-1.33
2017-01-25T04:01:12.081Z,-1.33
2017-01-25T04:02:12.004Z,-1.25
2017-01-25T04:03:11.597Z,-1.29
2017-01-25T04:04:11.746Z,-1.25
2017-01-25T04:05:12.047Z,-1.27
2017-01-25T04:06:12.197Z,-1.25
2017-01-25T04:07:11.054Z,-1.3
2017-01-25T04:08:12.372Z,-1.29
2017-01-25T04:09:12.260Z,-1.22
2017-01-25T04:10:10.751Z,-1.38
2017-01-25T04:11:11.764Z,-1.27
2017-01-25T04:12:11.707Z,-1.37
2017-01-25T04:13:11.120Z,-1.37
2017-01-25T04:14:11.693Z,-1.37
2017-01-25T04:15:11.940Z,-1.29
2017-01-25T04:16:11.436Z,-1.27
2017-01-25T04:17:12.234Z,-1.3
2017-01-25T04:18:11.644Z,-1.3
2017-01-25T04:19:11.886Z,-1.33
2017-01-25T04:20:12.374Z,-1.32
2017-01-25T04:21:12.267Z,-1.35
2017-01-25T04:22:11.644Z,-1.32
2017-01-25T04:23:12.241Z,-1.35
2017-01-25T04:24:11.597Z,-1.43
2017-01-25T04:25:11.824Z,-1.51
2017-01-25T04:26:10.912Z,-1.56
2017-01-25T04:27:11.525Z,-1.53
2017-01-25T04:28:12.196Z,-1.53
2017-01-25T04:29:11.813Z,-1.59
2017-01-25T04:30:11.749Z,-1.68
2017-01-25T04:31:11.595Z,-1.74
2017-01-25T04:32:11.152Z,-1.65
2017-01-25T04:33:11.838Z,-1.76
2017-01-25T04:34:12.127Z,-1.98
2017-01-25T04:35:11.355Z,-1.87
2017-01-25T04:36:12.463Z,-1.98
2017-01-25T04:37:11.617Z,-2.07
2017-01-25T04:38:11.830Z,-2.21
2017-01-25T04:39:12.493Z,-2.28
2017-01-25T04:40:11.981Z,-2.38
2017-01-25T04:41:12.025Z,-2.52
2017-01-25T04:42:13.487Z,-2.47
2017-01-25T04:43:12.246Z,-2.59
2017-01-25T04:44:12.252Z,-2.55
2017-01-25T04:45:12.761Z,-2.6
2017-01-25T04:46:11.782Z,-2.71
2017-01-25T04:47:11.812Z,-2.73
2017-01-25T04:48:11.864Z,-2.86
2017-01-25T04:49:12.386Z,-2.86
2017-01-25T04:50:11.837Z,-2.97
2017-01-25T04:51:12.385Z,-3.02
2017-01-25T04:52:12.222Z,-3.09
2017-01-25T04:53:11.495Z,-3.13
2017-01-25T04:54:11.562Z,-3.06
2017-01-25T04:55:12.727Z,-3.06
2017-01-25T04:56:12.059Z,-3.15
2017-01-25T04:57:12.440Z,-2.97
2017-01-25T04:58:11.733Z,-2.97
2017-01-25T04:59:11.964Z,-2.95
2017-01-25T05:00:12.373Z,-2.88
2017-01-25T05:01:12.872Z,-2.92
2017-01-25T05:02:12.160Z,-2.94
2017-01-25T05:03:12.245Z,-2.88
2017-01-25T05:04:11.979Z,-2.89
2017-01-25T05:05:12.011Z,-2.89
2017-01-25T05:06:12.072Z,-2.98
2017-01-25T05:07:12.327Z,-2.91
2017-01-25T05:08:11.746Z,-2.97
2017-01-25T05:09:12.565Z,-2.97
2017-01-25T05:10:13.337Z,-2.88
2017-01-25T05:11:12.724Z,-2.97
2017-01-25T05:12:12.693Z,-2.83
2017-01-25T05:13:12.450Z,-2.74
2017-01-25T05:14:12.941Z,-2.74
2017-01-25T05:15:12.647Z,-2.63
2017-01-25T05:16:12.619Z,-2.6
2017-01-25T05:17:12.870Z,-2.62
2017-01-25T05:18:13.263Z,-2.6
2017-01-25T05:19:12.867Z,-2.66
2017-01-25T05:20:12.025Z,-2.7
2017-01-25T05:21:12.854Z,-2.7
2017-01-25T05:22:12.812Z,-2.74
2017-01-25T05:23:13.112Z,-2.74
2017-01-25T05:24:12.612Z,-2.66
2017-01-25T05:25:14.416Z,-2.71
2017-01-25T05:26:12.870Z,-2.71
2017-01-25T05:27:12.925Z,-2.7
2017-01-25T05:28:13.544Z,-2.81
2017-01-25T05:29:12.751Z,-2.81
2017-01-25T05:30:13.882Z,-2.89
2017-01-25T05:31:12.466Z,-2.86
2017-01-25T05:32:12.806Z,-2.83
2017-01-25T05:33:14.012Z,-2.88
2017-01-25T05:34:13.266Z,-2.78
2017-01-25T05:35:12.141Z,-2.78
2017-01-25T05:36:12.979Z,-2.76
2017-01-25T05:37:14.615Z,-2.74
2017-01-25T05:38:14.282Z,-2.78
2017-01-25T05:39:13.429Z,-2.73
2017-01-25T05:40:13.696Z,-2.8
2017-01-25T05:41:12.755Z,-2.89
2017-01-25T05:42:12.399Z,-2.77
2017-01-25T05:43:13.325Z,-2.88
2017-01-25T05:44:13.224Z,-2.88
2017-01-25T05:45:12.930Z,-2.94
2017-01-25T05:46:14.048Z,-2.88
2017-01-25T05:47:13.212Z,-2.97
2017-01-25T05:48:13.154Z,-2.99
2017-01-25T05:49:12.859Z,-3.09
2017-01-25T05:50:13.139Z,-3.04
2017-01-25T05:51:13.665Z,-3.01
2017-01-25T05:52:12.291Z,-3.06
2017-01-25T05:53:12.681Z,-3.07
2017-01-25T05:54:13.145Z,-3.15
2017-01-25T05:55:12.482Z,-3.1
2017-01-25T05:56:13.579Z,-3.12
2017-01-25T05:57:14.223Z,-3.12
2017-01-25T05:58:14.161Z,-3.22
2017-01-25T05:59:14.343Z,-3.13
2017-01-25T06:00:12.937Z,-3.09
2017-01-25T06:01:13.806Z,-3.23
2017-01-25T06:02:13.631Z,-3.1
2017-01-25T06:03:13.508Z,-3.07
2017-01-25T06:04:12.987Z,-3.12
2017-01-25T06:05:13.091Z,-3.12
2017-01-25T06:06:13.071Z,-3.06
2017-01-25T06:07:12.756Z,-3.16
2017-01-25T06:08:12.762Z,-3.09
2017-01-25T06:09:13.586Z,-2.99
2017-01-25T06:10:13.071Z,-3.01
2017-01-25T06:11:14.325Z,-3.04
2017-01-25T06:12:12.885Z,-3.02
2017-01-25T06:13:13.995Z,-3.15
2017-01-25T06:14:13.209Z,-3.09
2017-01-25T06:15:12.196Z,-3.09
2017-01-25T06:16:12.449Z,-3.06
2017-01-25T06:17:13.396Z,-3.09
2017-01-25T06:18:12.910Z,-3.06
2017-01-25T06:19:14.726Z,-3.06
2017-01-25T06:20:15.063Z,-2.95
2017-01-25T06:21:13.517Z,-3.01
2017-01-25T06:22:12.784Z,-3.01
2017-01-25T06:23:13.566Z,-3.01
2017-01-25T06:24:12.502Z,-2.95
2017-01-25T06:25:12.563Z,-3.01
2017-01-25T06:26:13.846Z,-2.91
2017-01-25T06:27:12.746Z,-2.92
2017-01-25T06:28:13.870Z,-2.88
2017-01-25T06:29:13.037Z,-2.94
2017-01-25T06:30:13.062Z,-2.88
2017-01-25T06:31:12.893Z,-2.94
2017-01-25T06:32:12.811Z,-2.89
2017-01-25T06:33:13.079Z,-2.84
2017-01-25T06:34:12.927Z,-2.77
2017-01-25T06:35:13.158Z,-2.8
2017-01-25T06:36:13.549Z,-2.69
2017-01-25T06:37:13.419Z,-2.69
2017-01-25T06:38:13.841Z,-2.65
2017-01-25T06:39:13.311Z,-2.76
2017-01-25T06:40:14.091Z,-2.73
2017-01-25T06:41:14.145Z,-2.69
2017-01-25T06:42:14.793Z,-2.6
2017-01-25T06:43:14.040Z,-2.63
2017-01-25T06:44:15.321Z,-2.53
2017-01-25T06:45:14.937Z,-2.59
2017-01-25T06:46:13.085Z,-2.58
2017-01-25T06:47:13.078Z,-2.56
2017-01-25T06:48:13.454Z,-2.59
2017-01-25T06:49:13.587Z,-2.47
2017-01-25T06:50:12.842Z,-2.5
2017-01-25T06:51:12.964Z,-2.59
2017-01-25T06:52:12.560Z,-2.47
2017-01-25T06:53:13.516Z,-2.5
2017-01-25T06:54:13.281Z,-2.45
2017-01-25T06:55:13.413Z,-2.52
2017-01-25T06:56:12.896Z,-2.5
2017-01-25T06:57:12.734Z,-2.52
2017-01-25T06:58:12.766Z,-2.47
2017-01-25T06:59:12.886Z,-2.53
2017-01-25T07:00:15.436Z,-2.44
2017-01-25T07:01:14.364Z,-2.47
2017-01-25T07:02:13.527Z,-2.45
2017-01-25T07:03:13.402Z,-2.53
2017-01-25T07:04:13.125Z,-2.45
2017-01-25T07:05:14.140Z,-2.47
2017-01-25T07:06:13.180Z,-2.48
2017-01-25T07:07:13.522Z,-2.37
2017-01-25T07:08:13.676Z,-2.52
2017-01-25T07:09:13.244Z,-2.48
2017-01-25T07:10:13.456Z,-2.47
2017-01-25T07:11:13.136Z,-2.52
2017-01-25T07:12:13.563Z,-2.38
2017-01-25T07:13:14.577Z,-2.47
2017-01-25T07:14:13.154Z,-2.52
2017-01-25T07:15:13.360Z,-2.52
2017-01-25T07:16:13.888Z,-2.41
2017-01-25T07:17:13.643Z,-2.42
2017-01-25T07:18:13.577Z,-2.4
2017-01-25T07:19:12.904Z,-2.38
2017-01-25T07:20:14.407Z,-2.4
2017-01-25T07:21:13.720Z,-2.41
2017-01-25T07:22:13.714Z,-2.4
2017-01-25T07:23:13.832Z,-2.38
2017-01-25T07:24:13.656Z,-2.3
2017-01-25T07:25:13.699Z,-2.34
2017-01-25T07:26:13.295Z,-2.25
2017-01-25T07:27:13.414Z,-2.28
2017-01-25T07:28:14.051Z,-2.28
2017-01-25T07:29:13.891Z,-2.22
2017-01-25T07:30:14.457Z,-2.16
2017-01-25T07:31:13.400Z,-2.16
2017-01-25T07:32:14.246Z,-2.19
2017-01-25T07:33:13.128Z,-2.22
2017-01-25T07:34:14.394Z,-2.1
2017-01-25T07:35:13.848Z,-2.16
2017-01-25T07:36:13.688Z,-2.15
2017-01-25T07:37:13.560Z,-2.18
2017-01-25T07:38:13.304Z,-2.18
2017-01-25T07:39:13.299Z,-2.08
2017-01-25T07:40:13.446Z,-2.07
2017-01-25T07:41:14.321Z,-2.12
2017-01-25T07:42:14.156Z,-2.19
2017-01-25T07:43:14.456Z,-2
2017-01-25T07:44:13.307Z,-2.07
2017-01-25T07:45:13.099Z,-2.08
2017-01-25T07:46:13.825Z,-2.07
2017-01-25T07:47:13.787Z,-2.04
2017-01-25T07:48:13.973Z,-2.04
2017-01-25T07:49:14.940Z,-2.02
2017-01-25T07:50:13.405Z,-2.01
2017-01-25T07:51:14.774Z,-1.95
2017-01-25T07:52:14.392Z,-1.94
2017-01-25T07:53:13.801Z,-1.89
2017-01-25T07:54:13.975Z,-1.98
2017-01-25T07:55:13.980Z,-2.02
2017-01-25T07:56:13.926Z,-2
2017-01-25T07:57:13.301Z,-1.95
2017-01-25T07:58:14.068Z,-1.9
2017-01-25T07:59:14.852Z,-1.97
2017-01-25T08:00:13.934Z,-1.9
2017-01-25T08:01:14.886Z,-1.95
2017-01-25T08:02:14.017Z,-1.95
2017-01-25T08:03:14.622Z,-1.97
2017-01-25T08:04:14.807Z,-1.9
2017-01-25T08:05:15.338Z,-1.84
2017-01-25T08:06:14.217Z,-1.95
2017-01-25T08:07:14.688Z,-1.9
2017-01-25T08:08:15.040Z,-1.87
2017-01-25T08:09:13.796Z,-1.89
2017-01-25T08:10:14.281Z,-1.83
2017-01-25T08:11:15.114Z,-1.76
2017-01-25T08:12:14.400Z,-1.74
2017-01-25T08:13:14.378Z,-1.74
2017-01-25T08:14:14.309Z,-1.74
2017-01-25T08:15:15.269Z,-1.76
2017-01-25T08:16:13.905Z,-1.72
2017-01-25T08:17:14.676Z,-1.65
2017-01-25T08:18:14.191Z,-1.69
2017-01-25T08:19:15.379Z,-1.65
2017-01-25T08:20:15.209Z,-1.68
2017-01-25T08:21:14.270Z,-1.62
2017-01-25T08:22:15.285Z,-1.59
2017-01-25T08:23:14.963Z,-1.62
2017-01-25T08:24:15.280Z,-1.65
2017-01-25T08:25:14.558Z,-1.59
2017-01-25T08:26:14.699Z,-1.61
2017-01-25T08:27:14.739Z,-1.56
2017-01-25T08:28:15.158Z,-1.59
2017-01-25T08:29:15.058Z,-1.56
2017-01-25T08:30:14.758Z,-1.54
2017-01-25T08:31:14.148Z,-1.58
2017-01-25T08:32:15.473Z,-1.54
2017-01-25T08:33:15.581Z,-1.44
2017-01-25T08:34:14.223Z,-1.4
2017-01-25T08:35:14.479Z,-1.38
2017-01-25T08:36:15.379Z,-1.4
2017-01-25T08:37:14.814Z,-1.41
2017-01-25T08:38:14.191Z,-1.37
2017-01-25T08:39:14.197Z,-1.41
2017-01-25T08:40:14.927Z,-1.32
2017-01-25T08:41:14.854Z,-1.4
2017-01-25T08:42:14.608Z,-1.33
2017-01-25T08:43:14.512Z,-1.25
2017-01-25T08:44:15.196Z,-1.29
2017-01-25T08:45:14.523Z,-1.27
2017-01-25T08:46:14.369Z,-1.17
2017-01-25T08:47:16.433Z,-1.2
2017-01-25T08:48:14.927Z,-1.22
2017-01-25T08:49:14.100Z,-1.19
2017-01-25T08:50:14.949Z,-1.2
2017-01-25T08:51:14.874Z,-1.09
2017-01-25T08:52:14.890Z,-1.04
2017-01-25T08:53:14.360Z,-0.97
2017-01-25T08:54:14.827Z,-0.97
2017-01-25T08:55:16.337Z,-0.91
2017-01-25T08:56:14.346Z,-0.86
2017-01-25T08:57:14.224Z,-0.9
2017-01-25T08:58:15.451Z,-0.8
2017-01-25T08:59:14.974Z,-0.77
2017-01-25T09:00:14.883Z,-0.77
2017-01-25T09:01:15.430Z,-0.7
2017-01-25T09:02:15.184Z,-0.75
2017-01-25T09:03:14.636Z,-0.74
2017-01-25T09:04:15.398Z,-0.8
2017-01-25T09:05:14.800Z,-0.77
2017-01-25T09:06:15.331Z,-0.75
2017-01-25T09:07:14.740Z,-0.72
2017-01-25T09:08:14.853Z,-0.59
2017-01-25T09:09:15.115Z,-0.7
2017-01-25T09:10:14.649Z,-0.7
2017-01-25T09:11:14.771Z,-0.64
2017-01-25T09:12:15.407Z,-0.65
2017-01-25T09:13:15.568Z,-0.61
2017-01-25T09:14:15.171Z,-0.54
2017-01-25T09:15:14.925Z,-0.61
2017-01-25T09:16:16.098Z,-0.59
2017-01-25T09:17:15.351Z,-0.61
2017-01-25T09:18:14.723Z,-0.67
2017-01-25T09:19:15.497Z,-0.78
2017-01-25T09:20:15.958Z,-0.61
2017-01-25T09:21:15.063Z,-0.59
2017-01-25T09:22:15.640Z,-0.59
2017-01-25T09:23:15.949Z,-0.54
2017-01-25T09:24:14.811Z,-0.54
2017-01-25T09:25:15.393Z,-0.47
2017-01-25T09:26:15.503Z,-0.47
2017-01-25T09:27:15.163Z,-0.5
2017-01-25T09:28:16.656Z,-0.44
2017-01-25T09:29:16.320Z,-0.39
2017-01-25T09:30:15.711Z,-0.31
2017-01-25T09:31:15.478Z,-0.41
2017-01-25T09:32:15.855Z,-0.28
2017-01-25T09:33:15.216Z,-0.34
2017-01-25T09:34:15.900Z,-0.32
2017-01-25T09:35:15.256Z,-0.43
2017-01-25T09:36:16.287Z,-0.38
2017-01-25T09:37:15.987Z,-0.21
2017-01-25T09:38:15.326Z,-0.28
2017-01-25T09:39:16.509Z,-0.14
2017-01-25T09:40:16.236Z,-0.14
2017-01-25T09:41:14.884Z,-0.2
2017-01-25T09:42:14.818Z,-0.11
2017-01-25T09:43:15.524Z,-0.2
2017-01-25T09:44:15.025Z,-0.21
2017-01-25T09:45:15.835Z,-0.14
2017-01-25T09:46:14.817Z,-0.34
2017-01-25T09:47:15.066Z,-0.2
2017-01-25T09:48:15.797Z,-0.18
2017-01-25T09:49:15.039Z,-0.17
2017-01-25T09:50:15.500Z,-0.26
2017-01-25T09:51:14.799Z,-0.36
2017-01-25T09:52:14.698Z,-0.21
2017-01-25T09:53:15.298Z,-0.25
2017-01-25T09:54:15.902Z,-0.28
2017-01-25T09:55:15.224Z,-0.21
2017-01-25T09:56:15.788Z,-0.21
2017-01-25T09:57:15.464Z,-0.07
2017-01-25T09:58:16.433Z,-0.02
2017-01-25T09:59:15.556Z,-0.15
2017-01-25T10:00:15.577Z,-0.17
2017-01-25T10:01:15.810Z,-0.25
2017-01-25T10:02:15.292Z,-0.14
2017-01-25T10:03:15.362Z,-0.13
2017-01-25T10:04:15.112Z,-0.03
2017-01-25T10:05:15.534Z,-0.1
2017-01-25T10:06:14.627Z,-0.1
2017-01-25T10:07:15.106Z,0.03
2017-01-25T10:08:15.383Z,0.04
2017-01-25T10:09:16.720Z,0.15
2017-01-25T10:10:15.813Z,0.18
2017-01-25T10:11:15.935Z,0.25
2017-01-25T10:12:15.457Z,0.4
2017-01-25T10:13:15.098Z,0.4
2017-01-25T10:14:15.986Z,0.49
2017-01-25T10:15:15.550Z,0.5
2017-01-25T10:16:14.791Z,0.59
2017-01-25T10:17:16.662Z,0.69
2017-01-25T10:18:15.971Z,0.65
2017-01-25T10:19:15.635Z,0.65
2017-01-25T10:20:15.134Z,0.6
2017-01-25T10:21:15.178Z,0.68
2017-01-25T10:22:16.582Z,0.69
2017-01-25T10:23:14.813Z,0.73
2017-01-25T10:24:16.613Z,0.63
2017-01-25T10:25:16.251Z,0.81
2017-01-25T10:26:14.876Z,0.81
2017-01-25T10:27:15.493Z,0.88
2017-01-25T10:28:16.164Z,0.83
2017-01-25T10:29:14.910Z,0.8
2017-01-25T10:30:15.372Z,0.91
2017-01-25T10:31:16.361Z,0.74
2017-01-25T10:32:15.460Z,0.76
2017-01-25T10:33:15.597Z,0.83
2017-01-25T10:34:15.505Z,0.83
2017-01-25T10:35:16.933Z,0.92
2017-01-25T10:36:16.833Z,0.99
2017-01-25T10:37:16.240Z,0.98
2017-01-25T10:38:17.706Z,1.02
2017-01-25T10:39:16.807Z,0.77
2017-01-25T10:40:16.343Z,0.74
2017-01-25T10:41:15.913Z,0.8
2017-01-25T10:42:15.496Z,0.92
2017-01-25T10:43:16.035Z,0.8
2017-01-25T10:44:17.595Z,1.04
2017-01-25T10:45:16.037Z,1.08
2017-01-25T10:46:17.282Z,1.08
2017-01-25T10:47:16.699Z,1.12
2017-01-25T10:48:16.321Z,1.17
2017-01-25T10:49:16.780Z,1.3
2017-01-25T10:50:16.348Z,1.26
2017-01-25T10:51:16.283Z,1.38
2017-01-25T10:52:15.975Z,1.23
2017-01-25T10:53:15.640Z,1.22
2017-01-25T10:54:16.359Z,1.14
2017-01-25T10:55:15.845Z,1.16
2017-01-25T10:56:15.515Z,0.95
2017-01-25T10:57:16.364Z,1.02
2017-01-25T10:58:15.921Z,1.12
2017-01-25T10:59:15.817Z,1.14
2017-01-25T11:00:16.359Z,1.13
2017-01-25T11:01:16.341Z,1.06
2017-01-25T11:02:16.629Z,1.12
2017-01-25T11:03:16.094Z,1.26
2017-01-25T11:04:16.287Z,1.19
2017-01-25T11:05:15.629Z,1.37
2017-01-25T11:06:16.524Z,1.35
2017-01-25T11:07:15.729Z,1.42
2017-01-25T11:08:17.100Z,1.34
2017-01-25T11:09:16.608Z,1.4
2017-01-25T11:10:16.720Z,1.37
2017-01-25T11:11:16.220Z,1.32
2017-01-25T11:12:16.074Z,1.42
2017-01-25T11:13:16.146Z,1.24
2017-01-25T11:14:16.951Z,1.23
2017-01-25T11:15:15.987Z,1.23
2017-01-25T11:16:16.897Z,1.2
2017-01-25T11:17:17.388Z,1.16
2017-01-25T11:18:16.057Z,1.23
2017-01-25T11:19:15.742Z,1.1
2017-01-25T11:20:17.056Z,1.16
2017-01-25T11:21:16.351Z,1.17
2017-01-25T11:22:15.881Z,1.14
2017-01-25T11:23:16.114Z,0.99
2017-01-25T11:24:17.149Z,0.92
2017-01-25T11:25:17.338Z,0.92
2017-01-25T11:26:16.863Z,0.88
2017-01-25T11:27:15.937Z,1.05
2017-01-25T11:28:16.247Z,1.04
2017-01-25T11:29:17.574Z,1.17
2017-01-25T11:30:17.229Z,1.23
2017-01-25T11:31:16.020Z,1.28
2017-01-25T11:32:17.119Z,1.24
2017-01-25T11:33:16.353Z,1.35
2017-01-25T11:34:16.335Z,1.23
2017-01-25T11:35:16.530Z,1.37
2017-01-25T11:36:17.099Z,1.34
2017-01-25T11:37:16.377Z,1.4
2017-01-25T11:38:18.449Z,1.4
2017-01-25T11:39:17.044Z,1.42
2017-01-25T11:40:16.873Z,1.34
2017-01-25T11:41:17.332Z,1.28
2017-01-25T11:42:16.817Z,1.16
2017-01-25T11:43:17.196Z,1.35
2017-01-25T11:44:15.819Z,1.32
2017-01-25T11:45:17.744Z,1.26
2017-01-25T11:46:17.087Z,1.37
2017-01-25T11:47:17.373Z,1.45
2017-01-25T11:48:16.859Z,1.42
2017-01-25T11:49:18.261Z,1.34
2017-01-25T11:50:16.830Z,1.52
2017-01-25T11:51:16.943Z,1.56
2017-01-25T11:52:17.827Z,1.52
2017-01-25T11:53:16.638Z,1.41
2017-01-25T11:54:16.939Z,1.45
2017-01-25T11:55:17.582Z,1.35
2017-01-25T11:56:17.639Z,1.3
2017-01-25T11:57:16.557Z,1.31
2017-01-25T11:58:16.498Z,1.28
2017-01-25T11:59:16.326Z,1.19
2017-01-25T12:00:16.344Z,1.17
2017-01-25T12:01:16.198Z,1.16
2017-01-25T12:02:17.840Z,1.14
2017-01-25T12:03:16.494Z,1.28
2017-01-25T12:04:16.590Z,1.13
2017-01-25T12:05:17.878Z,1.16
2017-01-25T12:06:18.961Z,1.19
2017-01-25T12:07:16.646Z,1.28
2017-01-25T12:08:17.847Z,1.14
2017-01-25T12:09:17.927Z,1.12
2017-01-25T12:10:16.600Z,1.19
2017-01-25T12:11:16.918Z,1.13
2017-01-25T12:12:17.662Z,1.14
2017-01-25T12:13:17.320Z,1.16
2017-01-25T12:14:17.875Z,1.14
2017-01-25T12:15:17.955Z,1.23
2017-01-25T12:16:16.472Z,1.19
2017-01-25T12:17:17.866Z,1.13
2017-01-25T12:18:17.416Z,1.16
2017-01-25T12:19:17.636Z,1.14
2017-01-25T12:20:17.268Z,1.17
2017-01-25T12:21:17.704Z,1.17
2017-01-25T12:22:18.525Z,1.19
2017-01-25T12:23:16.174Z,1.13
2017-01-25T12:24:17.709Z,1.22
2017-01-25T12:25:16.959Z,1.17
2017-01-25T12:26:17.285Z,1.24
2017-01-25T12:27:17.049Z,1.28
2017-01-25T12:28:18.151Z,1.19
2017-01-25T12:29:17.364Z,1.3
2017-01-25T12:30:18.248Z,1.22
2017-01-25T12:31:18.929Z,1.3
2017-01-25T12:32:17.372Z,1.35
2017-01-25T12:33:17.062Z,1.23
2017-01-25T12:34:16.925Z,1.3
2017-01-25T12:35:17.279Z,1.26
2017-01-25T12:36:17.151Z,1.3
2017-01-25T12:37:17.650Z,1.4
2017-01-25T12:38:17.319Z,1.3
2017-01-25T12:39:18.307Z,1.34
2017-01-25T12:40:18.032Z,1.35
2017-01-25T12:41:19.488Z,1.37
2017-01-25T12:42:17.249Z,1.32
2017-01-25T12:43:18.205Z,1.24
2017-01-25T12:44:17.079Z,1.24
2017-01-25T12:45:17.283Z,1.26
2017-01-25T12:46:18.016Z,1.17
2017-01-25T12:47:16.941Z,1.17
2017-01-25T12:48:17.389Z,1.22
2017-01-25T12:49:17.210Z,1.24
2017-01-25T12:50:18.054Z,1.26
2017-01-25T12:51:18.166Z,1.3
2017-01-25T12:52:17.869Z,1.28
2017-01-25T12:53:17.098Z,1.35
2017-01-25T12:54:17.730Z,1.28
2017-01-25T12:55:18.213Z,1.31
2017-01-25T12:56:17.076Z,1.22
2017-01-25T12:57:18.096Z,1.23
2017-01-25T12:58:17.828Z,1.34
2017-01-25T12:59:17.687Z,1.38
2017-01-25T13:00:17.352Z,1.22
2017-01-25T13:01:18.145Z,1.24